RYR68KK LZIB-LIEA
Flight info
| Callsign | RYR68KK |
|---|---|
| Flight time | 1h 47m |
| Altitude | 36000 |
| Route | TOVKA DCT RUPET DCT GRZ DCT RADLY DCT GIRDA DCT BAXON DCT UNUMU DCT TAQ DCT BATOX L5 MINKA |
| Aircraft | B738/M-SDE2E3FGHIRWXY/LB1 |
Departure
| Time | 2026-05-04 23:25 |
|---|---|
| Airport | M. R. Štefánik Airport (LZIB) |
Arrival
| Time | 2026-05-05 01:12 |
|---|---|
| Airport | Alghero-Fertilia Airport (LIEA) |
| Time | Latitude | Longitude | Altitude | Speed | Heading |
|---|---|---|---|---|---|
| 2026-05-04 22:50 | 48.16974 | 17.20174 | 421 ft | 0 kts | 314° |
| 2026-05-04 23:16 | 48.16973 | 17.20176 | 431 ft | 2 kts | 314° |
| 2026-05-04 23:17 | 48.16957 | 17.20201 | 428 ft | 2 kts | 314° |
| 2026-05-04 23:17 | 48.16938 | 17.20222 | 425 ft | 4 kts | 356° |
| 2026-05-04 23:17 | 48.16916 | 17.20211 | 417 ft | 4 kts | 43° |
| 2026-05-04 23:17 | 48.16908 | 17.20199 | 420 ft | 1 kts | 44° |
| 2026-05-04 23:18 | 48.16908 | 17.20198 | 420 ft | 0 kts | 44° |
| 2026-05-04 23:21 | 48.16909 | 17.20201 | 419 ft | 2 kts | 44° |
| 2026-05-04 23:21 | 48.16958 | 17.20271 | 421 ft | 13 kts | 44° |
| 2026-05-04 23:21 | 48.17017 | 17.20357 | 426 ft | 10 kts | 44° |
| 2026-05-04 23:21 | 48.17069 | 17.20432 | 422 ft | 10 kts | 44° |
| 2026-05-04 23:22 | 48.17119 | 17.20504 | 421 ft | 10 kts | 44° |
| 2026-05-04 23:22 | 48.17170 | 17.20570 | 425 ft | 10 kts | 24° |
| 2026-05-04 23:22 | 48.17231 | 17.20548 | 423 ft | 9 kts | 320° |
| 2026-05-04 23:22 | 48.17276 | 17.20479 | 423 ft | 9 kts | 314° |
| 2026-05-04 23:23 | 48.17320 | 17.20413 | 424 ft | 9 kts | 315° |
| 2026-05-04 23:23 | 48.17364 | 17.20349 | 430 ft | 9 kts | 315° |
| 2026-05-04 23:23 | 48.17415 | 17.20306 | 422 ft | 8 kts | 343° |
| 2026-05-04 23:23 | 48.17472 | 17.20306 | 424 ft | 8 kts | 13° |
| 2026-05-04 23:24 | 48.17521 | 17.20350 | 420 ft | 9 kts | 42° |
| 2026-05-04 23:24 | 48.17536 | 17.20447 | 429 ft | 13 kts | 120° |
| 2026-05-04 23:24 | 48.17363 | 17.20720 | 430 ft | 70 kts | 134° |
| 2026-05-04 23:24 | 48.16861 | 17.21497 | 430 ft | 135 kts | 134° |
| 2026-05-04 23:25 | 48.16122 | 17.22661 | 702 ft | 163 kts | 130° |
| 2026-05-04 23:25 | 48.15323 | 17.23880 | 1425 ft | 164 kts | 136° |
| 2026-05-04 23:25 | 48.14574 | 17.25047 | 2466 ft | 156 kts | 141° |
| 2026-05-04 23:25 | 48.13736 | 17.26342 | 2972 ft | 191 kts | 140° |
| 2026-05-04 23:26 | 48.12796 | 17.27812 | 3523 ft | 200 kts | 140° |
| 2026-05-04 23:26 | 48.11852 | 17.29402 | 4041 ft | 210 kts | 129° |
| 2026-05-04 23:26 | 48.11341 | 17.31515 | 4662 ft | 224 kts | 105° |
| 2026-05-04 23:26 | 48.11419 | 17.33906 | 5220 ft | 239 kts | 79° |
| 2026-05-04 23:27 | 48.12240 | 17.36098 | 5857 ft | 246 kts | 50° |
| 2026-05-04 23:27 | 48.13537 | 17.37751 | 6512 ft | 247 kts | 26° |
| 2026-05-04 23:27 | 48.15199 | 17.38267 | 7054 ft | 249 kts | 352° |
| 2026-05-04 23:27 | 48.16870 | 17.37412 | 7252 ft | 264 kts | 326° |
| 2026-05-04 23:28 | 48.18508 | 17.35917 | 7492 ft | 287 kts | 325° |
| 2026-05-04 23:28 | 48.20226 | 17.34316 | 8118 ft | 294 kts | 325° |
| 2026-05-04 23:28 | 48.21981 | 17.32697 | 8870 ft | 298 kts | 326° |
| 2026-05-04 23:28 | 48.23721 | 17.31001 | 9647 ft | 298 kts | 316° |
| 2026-05-04 23:29 | 48.24922 | 17.28533 | 10301 ft | 296 kts | 288° |
| 2026-05-04 23:29 | 48.25315 | 17.25447 | 10500 ft | 311 kts | 266° |
| 2026-05-04 23:29 | 48.25231 | 17.22103 | 10755 ft | 329 kts | 264° |
| 2026-05-04 23:29 | 48.25100 | 17.18625 | 11308 ft | 337 kts | 264° |
| 2026-05-04 23:30 | 48.24971 | 17.15102 | 12020 ft | 340 kts | 264° |
| 2026-05-04 23:30 | 48.24855 | 17.11577 | 12786 ft | 342 kts | 265° |
| 2026-05-04 23:30 | 48.24745 | 17.07998 | 13553 ft | 345 kts | 265° |
| 2026-05-04 23:30 | 48.24635 | 17.04378 | 14247 ft | 349 kts | 265° |
| 2026-05-04 23:31 | 48.24762 | 17.00717 | 14913 ft | 358 kts | 281° |
| 2026-05-04 23:31 | 48.25587 | 16.97168 | 15617 ft | 361 kts | 283° |
| 2026-05-04 23:31 | 48.25778 | 16.93460 | 16257 ft | 359 kts | 257° |
| 2026-05-04 23:31 | 48.24945 | 16.89962 | 16967 ft | 357 kts | 239° |
| 2026-05-04 23:32 | 48.23444 | 16.87004 | 17636 ft | 359 kts | 225° |
| 2026-05-04 23:32 | 48.21690 | 16.84316 | 18279 ft | 363 kts | 224° |
| 2026-05-04 23:32 | 48.19881 | 16.81634 | 18827 ft | 368 kts | 224° |
| 2026-05-04 23:32 | 48.18048 | 16.78936 | 19380 ft | 372 kts | 224° |
| 2026-05-04 23:33 | 48.16219 | 16.76234 | 19934 ft | 375 kts | 224° |
| 2026-05-04 23:33 | 48.14334 | 16.73435 | 20524 ft | 379 kts | 224° |
| 2026-05-04 23:33 | 48.12459 | 16.70638 | 21095 ft | 382 kts | 225° |
| 2026-05-04 23:33 | 48.10568 | 16.67809 | 21613 ft | 387 kts | 225° |
| 2026-05-04 23:34 | 48.08653 | 16.64941 | 22117 ft | 391 kts | 225° |
| 2026-05-04 23:34 | 48.06753 | 16.62092 | 22683 ft | 394 kts | 225° |
| 2026-05-04 23:34 | 48.04808 | 16.59179 | 23191 ft | 398 kts | 225° |
| 2026-05-04 23:34 | 48.02843 | 16.56237 | 23623 ft | 403 kts | 225° |
| 2026-05-04 23:35 | 48.00854 | 16.53263 | 24069 ft | 405 kts | 225° |
| 2026-05-04 23:35 | 47.98859 | 16.50284 | 24606 ft | 405 kts | 225° |
| 2026-05-04 23:35 | 47.96858 | 16.47300 | 25035 ft | 409 kts | 225° |
| 2026-05-04 23:35 | 47.94837 | 16.44289 | 25395 ft | 413 kts | 225° |
| 2026-05-04 23:36 | 47.92798 | 16.41255 | 25846 ft | 415 kts | 225° |
| 2026-05-04 23:36 | 47.90753 | 16.38216 | 26312 ft | 416 kts | 225° |
| 2026-05-04 23:36 | 47.88695 | 16.35160 | 26683 ft | 420 kts | 225° |
| 2026-05-04 23:36 | 47.86619 | 16.32082 | 27062 ft | 422 kts | 225° |
| 2026-05-04 23:37 | 47.84533 | 16.28994 | 27526 ft | 423 kts | 225° |
| 2026-05-04 23:37 | 47.82443 | 16.25902 | 27914 ft | 425 kts | 225° |
| 2026-05-04 23:37 | 47.80332 | 16.22783 | 28236 ft | 429 kts | 225° |
| 2026-05-04 23:37 | 47.78209 | 16.19650 | 28640 ft | 431 kts | 225° |
| 2026-05-04 23:38 | 47.76080 | 16.16513 | 29046 ft | 432 kts | 225° |
| 2026-05-04 23:38 | 47.73939 | 16.13360 | 29391 ft | 435 kts | 225° |
| 2026-05-04 23:38 | 47.71781 | 16.10188 | 29718 ft | 437 kts | 225° |
| 2026-05-04 23:38 | 47.69616 | 16.07009 | 30057 ft | 439 kts | 225° |
| 2026-05-04 23:39 | 47.67438 | 16.03815 | 30347 ft | 441 kts | 225° |
| 2026-05-04 23:39 | 47.65252 | 16.00613 | 30678 ft | 441 kts | 225° |
| 2026-05-04 23:39 | 47.63076 | 15.97428 | 31119 ft | 439 kts | 225° |
| 2026-05-04 23:39 | 47.60909 | 15.94262 | 31594 ft | 436 kts | 225° |
| 2026-05-04 23:40 | 47.58751 | 15.91113 | 32014 ft | 434 kts | 225° |
| 2026-05-04 23:40 | 47.56600 | 15.87977 | 32383 ft | 434 kts | 225° |
| 2026-05-04 23:40 | 47.54450 | 15.84846 | 32757 ft | 433 kts | 225° |
| 2026-05-04 23:40 | 47.52311 | 15.81732 | 33191 ft | 430 kts | 225° |
| 2026-05-04 23:41 | 47.50182 | 15.78642 | 33645 ft | 427 kts | 225° |
| 2026-05-04 23:41 | 47.48026 | 15.75637 | 34034 ft | 426 kts | 219° |
| 2026-05-04 23:41 | 47.45597 | 15.73111 | 34253 ft | 429 kts | 211° |
| 2026-05-04 23:41 | 47.42920 | 15.71143 | 34477 ft | 431 kts | 202° |
| 2026-05-04 23:42 | 47.40119 | 15.69579 | 34812 ft | 429 kts | 202° |
| 2026-05-04 23:42 | 47.37318 | 15.68054 | 35115 ft | 429 kts | 201° |
| 2026-05-04 23:42 | 47.34515 | 15.66529 | 35296 ft | 431 kts | 201° |
| 2026-05-04 23:42 | 47.31695 | 15.64982 | 35421 ft | 434 kts | 202° |
| 2026-05-04 23:43 | 47.28869 | 15.63419 | 35676 ft | 433 kts | 202° |
| 2026-05-04 23:43 | 47.26090 | 15.61875 | 36008 ft | 431 kts | 202° |
| 2026-05-04 23:43 | 47.23291 | 15.60316 | 36298 ft | 430 kts | 202° |
| 2026-05-04 23:43 | 47.20490 | 15.58754 | 36514 ft | 431 kts | 202° |
| 2026-05-04 23:44 | 47.17647 | 15.57170 | 36741 ft | 431 kts | 202° |
| 2026-05-04 23:44 | 47.14844 | 15.55611 | 36994 ft | 431 kts | 202° |
| 2026-05-04 23:44 | 47.12079 | 15.54075 | 37250 ft | 430 kts | 202° |
| 2026-05-04 23:44 | 47.09281 | 15.52523 | 37473 ft | 430 kts | 202° |
| 2026-05-04 23:45 | 47.06484 | 15.50972 | 37703 ft | 430 kts | 202° |
| 2026-05-04 23:45 | 47.03690 | 15.49425 | 37939 ft | 429 kts | 202° |
| 2026-05-04 23:45 | 46.98064 | 15.46315 | 37969 ft | 433 kts | 202° |
| 2026-05-04 23:46 | 46.92585 | 15.42826 | 37974 ft | 427 kts | 210° |
| 2026-05-04 23:46 | 46.87386 | 15.38667 | 37967 ft | 425 kts | 211° |
| 2026-05-04 23:47 | 46.82199 | 15.34520 | 37975 ft | 425 kts | 210° |
| 2026-05-04 23:47 | 46.76997 | 15.30445 | 37977 ft | 424 kts | 210° |
| 2026-05-04 23:48 | 46.71783 | 15.26394 | 37998 ft | 425 kts | 210° |
| 2026-05-04 23:48 | 46.66565 | 15.22347 | 38023 ft | 425 kts | 210° |
| 2026-05-04 23:49 | 46.61459 | 15.17994 | 38024 ft | 425 kts | 214° |
| 2026-05-04 23:49 | 46.56496 | 15.13289 | 38013 ft | 427 kts | 215° |
| 2026-05-04 23:50 | 46.51522 | 15.08564 | 38030 ft | 428 kts | 215° |
| 2026-05-04 23:50 | 46.46520 | 15.03859 | 38041 ft | 429 kts | 214° |
| 2026-05-04 23:51 | 46.41501 | 14.99170 | 38041 ft | 429 kts | 214° |
| 2026-05-04 23:51 | 46.36513 | 14.94528 | 38049 ft | 429 kts | 215° |
| 2026-05-04 23:52 | 46.31494 | 14.89866 | 38058 ft | 428 kts | 215° |
| 2026-05-04 23:52 | 46.26494 | 14.85230 | 38051 ft | 426 kts | 214° |
| 2026-05-04 23:53 | 46.21511 | 14.80621 | 38071 ft | 424 kts | 215° |
| 2026-05-04 23:53 | 46.16547 | 14.76039 | 38067 ft | 423 kts | 214° |
| 2026-05-04 23:54 | 46.11592 | 14.71475 | 38074 ft | 422 kts | 214° |
| 2026-05-04 23:54 | 46.06638 | 14.66922 | 38079 ft | 422 kts | 214° |
| 2026-05-04 23:55 | 46.01678 | 14.62373 | 38072 ft | 423 kts | 214° |
| 2026-05-04 23:56 | 45.94220 | 14.55552 | 38076 ft | 424 kts | 214° |
| 2026-05-04 23:56 | 45.89230 | 14.51001 | 38074 ft | 425 kts | 214° |
| 2026-05-04 23:57 | 45.84231 | 14.46450 | 38079 ft | 426 kts | 214° |
| 2026-05-04 23:57 | 45.79222 | 14.41902 | 38084 ft | 426 kts | 214° |
| 2026-05-04 23:58 | 45.74205 | 14.37355 | 38085 ft | 427 kts | 214° |
| 2026-05-04 23:58 | 45.69185 | 14.32815 | 38088 ft | 427 kts | 214° |
| 2026-05-04 23:59 | 45.64165 | 14.28285 | 38092 ft | 427 kts | 214° |
| 2026-05-04 23:59 | 45.59993 | 14.24527 | 38093 ft | 427 kts | 214° |
| 2026-05-05 00:00 | 45.54155 | 14.19279 | 38093 ft | 426 kts | 214° |
| 2026-05-05 00:00 | 45.49957 | 14.15513 | 38096 ft | 425 kts | 214° |
| 2026-05-05 00:01 | 45.44829 | 14.11413 | 38103 ft | 426 kts | 207° |
| 2026-05-05 00:01 | 45.39411 | 14.07975 | 38094 ft | 426 kts | 206° |
| 2026-05-05 00:02 | 45.33980 | 14.04584 | 38084 ft | 426 kts | 206° |
| 2026-05-05 00:02 | 45.28564 | 14.01152 | 38078 ft | 426 kts | 207° |
| 2026-05-05 00:03 | 45.23166 | 13.97702 | 38086 ft | 425 kts | 207° |
| 2026-05-05 00:03 | 45.17771 | 13.94250 | 38078 ft | 425 kts | 207° |
| 2026-05-05 00:04 | 45.12375 | 13.90806 | 38085 ft | 425 kts | 207° |
| 2026-05-05 00:04 | 45.06982 | 13.87373 | 38083 ft | 425 kts | 207° |
| 2026-05-05 00:05 | 45.01583 | 13.83942 | 38080 ft | 425 kts | 207° |
| 2026-05-05 00:05 | 44.96181 | 13.80517 | 38078 ft | 426 kts | 207° |
| 2026-05-05 00:06 | 44.90775 | 13.77097 | 38071 ft | 426 kts | 207° |
| 2026-05-05 00:06 | 44.85367 | 13.73683 | 38072 ft | 426 kts | 207° |
| 2026-05-05 00:07 | 44.79958 | 13.70275 | 38076 ft | 426 kts | 207° |
| 2026-05-05 00:07 | 44.74586 | 13.66897 | 38067 ft | 426 kts | 207° |
| 2026-05-05 00:08 | 44.69184 | 13.63507 | 38068 ft | 425 kts | 208° |
| 2026-05-05 00:08 | 44.63784 | 13.60125 | 38063 ft | 425 kts | 207° |
| 2026-05-05 00:09 | 44.58385 | 13.56751 | 38065 ft | 425 kts | 207° |
| 2026-05-05 00:09 | 44.52991 | 13.53386 | 38057 ft | 424 kts | 208° |
| 2026-05-05 00:10 | 44.47599 | 13.50028 | 38059 ft | 424 kts | 208° |
| 2026-05-05 00:10 | 44.42207 | 13.46678 | 38060 ft | 424 kts | 208° |
| 2026-05-05 00:11 | 44.36985 | 13.42940 | 38063 ft | 421 kts | 212° |
| 2026-05-05 00:11 | 44.31864 | 13.38978 | 38055 ft | 421 kts | 212° |
| 2026-05-05 00:12 | 44.26737 | 13.35027 | 38058 ft | 421 kts | 212° |
| 2026-05-05 00:12 | 44.21599 | 13.31114 | 38043 ft | 421 kts | 212° |
| 2026-05-05 00:13 | 44.16456 | 13.27223 | 38047 ft | 420 kts | 212° |
| 2026-05-05 00:13 | 44.11317 | 13.23347 | 38053 ft | 420 kts | 212° |
| 2026-05-05 00:14 | 44.06178 | 13.19478 | 38063 ft | 420 kts | 212° |
| 2026-05-05 00:14 | 44.01041 | 13.15617 | 38058 ft | 420 kts | 212° |
| 2026-05-05 00:15 | 43.95905 | 13.11765 | 38066 ft | 419 kts | 212° |
| 2026-05-05 00:15 | 43.90771 | 13.07922 | 38057 ft | 419 kts | 212° |
| 2026-05-05 00:16 | 43.85630 | 13.04080 | 38089 ft | 421 kts | 212° |
| 2026-05-05 00:16 | 43.83085 | 13.02182 | 38321 ft | 420 kts | 212° |
| 2026-05-05 00:16 | 43.80516 | 13.00268 | 38613 ft | 418 kts | 211° |
| 2026-05-05 00:16 | 43.77959 | 12.98365 | 38850 ft | 417 kts | 211° |
| 2026-05-05 00:17 | 43.75402 | 12.96462 | 38978 ft | 417 kts | 211° |
| 2026-05-05 00:17 | 43.70267 | 12.92646 | 39063 ft | 421 kts | 211° |
| 2026-05-05 00:18 | 43.65100 | 12.88816 | 39085 ft | 420 kts | 211° |
| 2026-05-05 00:18 | 43.59950 | 12.85007 | 39083 ft | 419 kts | 211° |
| 2026-05-05 00:19 | 43.54812 | 12.81213 | 39082 ft | 418 kts | 211° |
| 2026-05-05 00:19 | 43.49689 | 12.77436 | 39080 ft | 417 kts | 211° |
| 2026-05-05 00:20 | 43.44591 | 12.73685 | 39098 ft | 414 kts | 211° |
| 2026-05-05 00:20 | 43.39563 | 12.69837 | 39107 ft | 412 kts | 213° |
| 2026-05-05 00:21 | 43.34667 | 12.65729 | 39105 ft | 412 kts | 214° |
| 2026-05-05 00:21 | 43.29786 | 12.61604 | 39109 ft | 412 kts | 214° |
| 2026-05-05 00:22 | 43.24885 | 12.57502 | 39132 ft | 413 kts | 214° |
| 2026-05-05 00:22 | 43.19956 | 12.53405 | 39143 ft | 415 kts | 214° |
| 2026-05-05 00:23 | 43.15001 | 12.49301 | 39138 ft | 418 kts | 214° |
| 2026-05-05 00:23 | 43.10010 | 12.45176 | 39127 ft | 420 kts | 214° |
| 2026-05-05 00:24 | 43.05002 | 12.41045 | 39134 ft | 421 kts | 214° |
| 2026-05-05 00:24 | 42.99972 | 12.36903 | 39129 ft | 423 kts | 213° |
| 2026-05-05 00:25 | 42.94920 | 12.32752 | 39118 ft | 424 kts | 214° |
| 2026-05-05 00:25 | 42.89895 | 12.28631 | 39117 ft | 424 kts | 214° |
| 2026-05-05 00:26 | 42.84837 | 12.24491 | 39112 ft | 424 kts | 214° |
| 2026-05-05 00:26 | 42.79790 | 12.20367 | 39106 ft | 422 kts | 214° |
| 2026-05-05 00:27 | 42.74761 | 12.16268 | 39110 ft | 420 kts | 214° |
| 2026-05-05 00:27 | 42.69752 | 12.12190 | 39102 ft | 419 kts | 214° |
| 2026-05-05 00:28 | 42.64765 | 12.08139 | 39103 ft | 416 kts | 214° |
| 2026-05-05 00:28 | 42.59800 | 12.04113 | 39115 ft | 415 kts | 214° |
| 2026-05-05 00:29 | 42.54858 | 12.00113 | 39110 ft | 413 kts | 215° |
| 2026-05-05 00:29 | 42.49931 | 11.96133 | 39100 ft | 412 kts | 215° |
| 2026-05-05 00:30 | 42.45017 | 11.92170 | 39097 ft | 410 kts | 215° |
| 2026-05-05 00:30 | 42.40118 | 11.88225 | 39094 ft | 409 kts | 215° |
| 2026-05-05 00:31 | 42.35224 | 11.84294 | 39095 ft | 409 kts | 216° |
| 2026-05-05 00:31 | 42.30337 | 11.80372 | 39092 ft | 408 kts | 216° |
| 2026-05-05 00:32 | 42.25449 | 11.76458 | 39098 ft | 409 kts | 216° |
| 2026-05-05 00:32 | 42.20833 | 11.72089 | 39087 ft | 402 kts | 227° |
| 2026-05-05 00:33 | 42.17177 | 11.66459 | 39106 ft | 399 kts | 234° |
| 2026-05-05 00:33 | 42.13641 | 11.60693 | 39091 ft | 399 kts | 234° |
| 2026-05-05 00:34 | 42.10092 | 11.54950 | 39072 ft | 398 kts | 234° |
| 2026-05-05 00:34 | 42.06563 | 11.49276 | 39073 ft | 397 kts | 233° |
| 2026-05-05 00:35 | 42.03019 | 11.43599 | 39059 ft | 395 kts | 234° |
| 2026-05-05 00:35 | 41.99485 | 11.37950 | 39066 ft | 394 kts | 234° |
| 2026-05-05 00:36 | 41.95960 | 11.32325 | 39070 ft | 393 kts | 234° |
| 2026-05-05 00:36 | 41.92444 | 11.26726 | 39067 ft | 392 kts | 233° |
| 2026-05-05 00:37 | 41.88932 | 11.21142 | 39063 ft | 391 kts | 233° |
| 2026-05-05 00:37 | 41.85423 | 11.15574 | 39054 ft | 390 kts | 233° |
| 2026-05-05 00:38 | 41.81915 | 11.10020 | 39061 ft | 390 kts | 233° |
| 2026-05-05 00:38 | 41.78409 | 11.04477 | 39064 ft | 390 kts | 233° |
| 2026-05-05 00:39 | 41.74892 | 10.98926 | 38866 ft | 395 kts | 233° |
| 2026-05-05 00:39 | 41.73107 | 10.96110 | 38408 ft | 397 kts | 233° |
| 2026-05-05 00:39 | 41.71324 | 10.93304 | 37897 ft | 393 kts | 233° |
| 2026-05-05 00:39 | 41.69565 | 10.90542 | 37501 ft | 388 kts | 233° |
| 2026-05-05 00:40 | 41.67827 | 10.87814 | 37116 ft | 383 kts | 233° |
| 2026-05-05 00:40 | 41.66107 | 10.85116 | 36712 ft | 379 kts | 233° |
| 2026-05-05 00:40 | 41.64409 | 10.82454 | 36365 ft | 374 kts | 233° |
| 2026-05-05 00:40 | 41.62729 | 10.79822 | 35987 ft | 371 kts | 233° |
| 2026-05-05 00:41 | 41.61063 | 10.77212 | 35600 ft | 368 kts | 233° |
| 2026-05-05 00:41 | 41.59410 | 10.74627 | 35232 ft | 365 kts | 233° |
| 2026-05-05 00:41 | 41.57769 | 10.72060 | 34857 ft | 362 kts | 233° |
| 2026-05-05 00:41 | 41.56138 | 10.69513 | 34489 ft | 359 kts | 233° |
| 2026-05-05 00:42 | 41.54518 | 10.66985 | 34122 ft | 357 kts | 233° |
| 2026-05-05 00:42 | 41.52909 | 10.64475 | 33716 ft | 355 kts | 233° |
| 2026-05-05 00:42 | 41.51310 | 10.61984 | 33316 ft | 352 kts | 233° |
| 2026-05-05 00:42 | 41.49722 | 10.59512 | 32929 ft | 349 kts | 233° |
| 2026-05-05 00:43 | 41.48145 | 10.57060 | 32565 ft | 347 kts | 233° |
| 2026-05-05 00:43 | 41.46581 | 10.54630 | 32221 ft | 344 kts | 233° |
| 2026-05-05 00:43 | 41.45031 | 10.52222 | 31864 ft | 341 kts | 233° |
| 2026-05-05 00:43 | 41.43512 | 10.49866 | 31521 ft | 338 kts | 233° |
| 2026-05-05 00:44 | 41.41983 | 10.47494 | 31173 ft | 336 kts | 233° |
| 2026-05-05 00:44 | 41.40464 | 10.45141 | 30830 ft | 334 kts | 233° |
| 2026-05-05 00:44 | 41.38954 | 10.42804 | 30488 ft | 332 kts | 233° |
| 2026-05-05 00:44 | 41.37452 | 10.40481 | 30142 ft | 330 kts | 233° |
| 2026-05-05 00:45 | 41.35958 | 10.38171 | 29746 ft | 328 kts | 233° |
| 2026-05-05 00:45 | 41.34475 | 10.35880 | 29365 ft | 325 kts | 233° |
| 2026-05-05 00:45 | 41.33003 | 10.33609 | 28991 ft | 323 kts | 233° |
| 2026-05-05 00:45 | 41.31544 | 10.31359 | 28629 ft | 320 kts | 233° |
| 2026-05-05 00:46 | 41.30097 | 10.29129 | 28256 ft | 317 kts | 233° |
| 2026-05-05 00:46 | 41.28662 | 10.26918 | 27906 ft | 315 kts | 233° |
| 2026-05-05 00:46 | 41.27237 | 10.24723 | 27559 ft | 312 kts | 233° |
| 2026-05-05 00:46 | 41.25821 | 10.22545 | 27211 ft | 310 kts | 233° |
| 2026-05-05 00:47 | 41.24411 | 10.20379 | 26874 ft | 309 kts | 233° |
| 2026-05-05 00:47 | 41.23011 | 10.18230 | 26544 ft | 306 kts | 233° |
| 2026-05-05 00:47 | 41.21702 | 10.16023 | 26190 ft | 302 kts | 240° |
| 2026-05-05 00:47 | 41.20683 | 10.13605 | 25855 ft | 299 kts | 248° |
| 2026-05-05 00:48 | 41.19904 | 10.11058 | 25523 ft | 297 kts | 250° |
| 2026-05-05 00:48 | 41.19160 | 10.08511 | 25184 ft | 295 kts | 250° |
| 2026-05-05 00:48 | 41.18413 | 10.05976 | 24846 ft | 294 kts | 250° |
| 2026-05-05 00:48 | 41.17661 | 10.03453 | 24517 ft | 294 kts | 250° |
| 2026-05-05 00:49 | 41.16908 | 10.00934 | 24172 ft | 293 kts | 250° |
| 2026-05-05 00:49 | 41.16414 | 9.99266 | 23904 ft | 294 kts | 250° |
| 2026-05-05 00:49 | 41.15421 | 9.95878 | 23398 ft | 294 kts | 250° |
| 2026-05-05 00:49 | 41.14931 | 9.94205 | 23145 ft | 294 kts | 250° |
| 2026-05-05 00:50 | 41.14193 | 9.91688 | 22790 ft | 292 kts | 250° |
| 2026-05-05 00:50 | 41.13459 | 9.89186 | 22440 ft | 290 kts | 250° |
| 2026-05-05 00:50 | 41.12728 | 9.86699 | 22111 ft | 288 kts | 250° |
| 2026-05-05 00:50 | 41.12002 | 9.84229 | 21787 ft | 287 kts | 250° |
| 2026-05-05 00:51 | 41.11279 | 9.81775 | 21486 ft | 285 kts | 249° |
| 2026-05-05 00:51 | 41.10559 | 9.79337 | 21160 ft | 283 kts | 249° |
| 2026-05-05 00:51 | 41.09842 | 9.76911 | 20847 ft | 282 kts | 249° |
| 2026-05-05 00:51 | 41.09122 | 9.74503 | 20523 ft | 281 kts | 249° |
| 2026-05-05 00:52 | 41.08399 | 9.72099 | 20204 ft | 280 kts | 249° |
| 2026-05-05 00:52 | 41.07678 | 9.69708 | 19895 ft | 279 kts | 249° |
| 2026-05-05 00:52 | 41.06957 | 9.67320 | 19577 ft | 279 kts | 249° |
| 2026-05-05 00:52 | 41.06239 | 9.64939 | 19264 ft | 278 kts | 249° |
| 2026-05-05 00:53 | 41.05521 | 9.62560 | 18948 ft | 278 kts | 249° |
| 2026-05-05 00:53 | 41.04803 | 9.60181 | 18631 ft | 278 kts | 249° |
| 2026-05-05 00:53 | 41.04083 | 9.57800 | 18317 ft | 278 kts | 248° |
| 2026-05-05 00:53 | 41.03363 | 9.55418 | 17959 ft | 278 kts | 248° |
| 2026-05-05 00:54 | 41.02644 | 9.53043 | 17636 ft | 277 kts | 248° |
| 2026-05-05 00:54 | 41.01927 | 9.50678 | 17316 ft | 276 kts | 248° |
| 2026-05-05 00:54 | 41.01214 | 9.48324 | 17009 ft | 275 kts | 248° |
| 2026-05-05 00:54 | 41.00503 | 9.45980 | 16708 ft | 273 kts | 248° |
| 2026-05-05 00:55 | 40.99795 | 9.43649 | 16402 ft | 273 kts | 248° |
| 2026-05-05 00:55 | 40.99097 | 9.41353 | 16085 ft | 272 kts | 247° |
| 2026-05-05 00:55 | 40.98391 | 9.39034 | 15790 ft | 271 kts | 248° |
| 2026-05-05 00:55 | 40.97687 | 9.36721 | 15486 ft | 271 kts | 247° |
| 2026-05-05 00:56 | 40.96982 | 9.34406 | 15177 ft | 271 kts | 247° |
| 2026-05-05 00:56 | 40.96278 | 9.32096 | 14872 ft | 270 kts | 248° |
| 2026-05-05 00:56 | 40.95575 | 9.29793 | 14578 ft | 270 kts | 248° |
| 2026-05-05 00:56 | 40.94872 | 9.27494 | 14275 ft | 269 kts | 248° |
| 2026-05-05 00:57 | 40.94167 | 9.25194 | 13875 ft | 273 kts | 247° |
| 2026-05-05 00:57 | 40.93445 | 9.22852 | 13459 ft | 276 kts | 247° |
| 2026-05-05 00:57 | 40.92724 | 9.20513 | 13165 ft | 274 kts | 247° |
| 2026-05-05 00:57 | 40.92010 | 9.18197 | 12875 ft | 271 kts | 247° |
| 2026-05-05 00:58 | 40.91306 | 9.15918 | 12470 ft | 266 kts | 248° |
| 2026-05-05 00:58 | 40.90608 | 9.13657 | 11937 ft | 265 kts | 248° |
| 2026-05-05 00:58 | 40.89911 | 9.11402 | 11450 ft | 264 kts | 248° |
| 2026-05-05 00:58 | 40.89222 | 9.09174 | 11081 ft | 260 kts | 248° |
| 2026-05-05 00:59 | 40.88540 | 9.06970 | 10809 ft | 259 kts | 247° |
| 2026-05-05 00:59 | 40.87859 | 9.04770 | 10512 ft | 258 kts | 247° |
| 2026-05-05 00:59 | 40.87180 | 9.02583 | 10254 ft | 257 kts | 247° |
| 2026-05-05 00:59 | 40.86511 | 9.00423 | 10110 ft | 250 kts | 247° |
| 2026-05-05 01:00 | 40.85860 | 8.98326 | 9961 ft | 244 kts | 247° |
| 2026-05-05 01:00 | 40.85215 | 8.96250 | 9693 ft | 243 kts | 247° |
| 2026-05-05 01:00 | 40.84578 | 8.94200 | 9470 ft | 240 kts | 247° |
| 2026-05-05 01:00 | 40.83949 | 8.92177 | 9235 ft | 237 kts | 247° |
| 2026-05-05 01:01 | 40.83327 | 8.90180 | 9025 ft | 234 kts | 247° |
| 2026-05-05 01:01 | 40.82712 | 8.88208 | 8800 ft | 231 kts | 247° |
| 2026-05-05 01:01 | 40.82103 | 8.86257 | 8582 ft | 230 kts | 247° |
| 2026-05-05 01:01 | 40.81494 | 8.84315 | 8508 ft | 227 kts | 247° |
| 2026-05-05 01:02 | 40.80887 | 8.82389 | 8327 ft | 234 kts | 246° |
| 2026-05-05 01:02 | 40.80248 | 8.80363 | 8074 ft | 243 kts | 246° |
| 2026-05-05 01:02 | 40.79595 | 8.78297 | 7781 ft | 243 kts | 247° |
| 2026-05-05 01:02 | 40.78949 | 8.76252 | 7527 ft | 240 kts | 247° |
| 2026-05-05 01:03 | 40.78308 | 8.74223 | 7259 ft | 239 kts | 246° |
| 2026-05-05 01:03 | 40.77831 | 8.72135 | 6986 ft | 241 kts | 263° |
| 2026-05-05 01:03 | 40.77914 | 8.69918 | 6732 ft | 244 kts | 275° |
| 2026-05-05 01:03 | 40.78180 | 8.67712 | 6446 ft | 243 kts | 276° |
| 2026-05-05 01:04 | 40.78466 | 8.65527 | 6184 ft | 241 kts | 277° |
| 2026-05-05 01:04 | 40.79010 | 8.61205 | 5642 ft | 236 kts | 276° |
| 2026-05-05 01:04 | 40.79267 | 8.59080 | 5389 ft | 233 kts | 276° |
| 2026-05-05 01:05 | 40.79520 | 8.56972 | 5128 ft | 233 kts | 276° |
| 2026-05-05 01:05 | 40.79771 | 8.54863 | 4870 ft | 233 kts | 276° |
| 2026-05-05 01:05 | 40.80148 | 8.52780 | 4566 ft | 237 kts | 289° |
| 2026-05-05 01:05 | 40.80862 | 8.50831 | 4419 ft | 233 kts | 291° |
| 2026-05-05 01:06 | 40.81551 | 8.48932 | 4285 ft | 226 kts | 290° |
| 2026-05-05 01:06 | 40.82204 | 8.47097 | 4213 ft | 214 kts | 289° |
| 2026-05-05 01:06 | 40.82815 | 8.45374 | 4112 ft | 201 kts | 289° |
| 2026-05-05 01:06 | 40.83267 | 8.43728 | 4053 ft | 178 kts | 267° |
| 2026-05-05 01:07 | 40.82857 | 8.42385 | 4055 ft | 155 kts | 225° |
| 2026-05-05 01:07 | 40.82036 | 8.41471 | 3877 ft | 157 kts | 224° |
| 2026-05-05 01:07 | 40.81198 | 8.40559 | 3693 ft | 157 kts | 220° |
| 2026-05-05 01:07 | 40.80295 | 8.39769 | 3494 ft | 154 kts | 216° |
| 2026-05-05 01:08 | 40.79395 | 8.39031 | 3297 ft | 151 kts | 216° |
| 2026-05-05 01:08 | 40.78474 | 8.38348 | 3090 ft | 152 kts | 212° |
| 2026-05-05 01:08 | 40.77520 | 8.37722 | 2906 ft | 155 kts | 209° |
| 2026-05-05 01:08 | 40.76532 | 8.37110 | 2692 ft | 158 kts | 208° |
| 2026-05-05 01:09 | 40.75537 | 8.36506 | 2484 ft | 157 kts | 208° |
| 2026-05-05 01:09 | 40.74542 | 8.35906 | 2276 ft | 157 kts | 207° |
| 2026-05-05 01:09 | 40.73550 | 8.35308 | 2057 ft | 155 kts | 207° |
| 2026-05-05 01:09 | 40.72616 | 8.34746 | 1872 ft | 140 kts | 206° |
| 2026-05-05 01:10 | 40.71746 | 8.34221 | 1691 ft | 138 kts | 208° |
| 2026-05-05 01:10 | 40.70882 | 8.33698 | 1510 ft | 138 kts | 208° |
| 2026-05-05 01:10 | 40.69995 | 8.33159 | 1307 ft | 141 kts | 207° |
| 2026-05-05 01:10 | 40.69115 | 8.32629 | 1108 ft | 136 kts | 206° |
| 2026-05-05 01:11 | 40.68269 | 8.32114 | 945 ft | 132 kts | 205° |
| 2026-05-05 01:11 | 40.67428 | 8.31614 | 755 ft | 132 kts | 204° |
| 2026-05-05 01:11 | 40.66594 | 8.31104 | 571 ft | 132 kts | 203° |
| 2026-05-05 01:11 | 40.65737 | 8.30594 | 399 ft | 139 kts | 204° |
| 2026-05-05 01:12 | 40.64825 | 8.30057 | 243 ft | 146 kts | 204° |
| 2026-05-05 01:12 | 40.63909 | 8.29493 | 98 ft | 139 kts | 202° |
| 2026-05-05 01:12 | 40.63161 | 8.29045 | 99 ft | 92 kts | 204° |
| 2026-05-05 01:12 | 40.62841 | 8.28856 | 92 ft | 28 kts | 200° |
| 2026-05-05 01:13 | 40.62656 | 8.28841 | 81 ft | 18 kts | 175° |
| 2026-05-05 01:13 | 40.62606 | 8.28943 | 82 ft | 15 kts | 63° |
| 2026-05-05 01:13 | 40.62692 | 8.29011 | 87 ft | 14 kts | 22° |
| 2026-05-05 01:13 | 40.62782 | 8.29064 | 89 ft | 14 kts | 23° |
| 2026-05-05 01:14 | 40.62845 | 8.29148 | 89 ft | 13 kts | 68° |
| 2026-05-05 01:14 | 40.62880 | 8.29257 | 91 ft | 13 kts | 50° |
| 2026-05-05 01:14 | 40.62957 | 8.29311 | 91 ft | 12 kts | 25° |
| 2026-05-05 01:14 | 40.63035 | 8.29357 | 92 ft | 12 kts | 25° |
| 2026-05-05 01:15 | 40.63111 | 8.29403 | 92 ft | 12 kts | 24° |
| 2026-05-05 01:15 | 40.63185 | 8.29447 | 92 ft | 11 kts | 24° |
| 2026-05-05 01:15 | 40.63221 | 8.29480 | 92 ft | 6 kts | 79° |
| 2026-05-05 01:15 | 40.63209 | 8.29528 | 90 ft | 1 kts | 115° |
| 2026-05-05 01:16 | 40.63207 | 8.29532 | 89 ft | 1 kts | 115° |
| 2026-05-05 01:16 | 40.63206 | 8.29535 | 90 ft | 0 kts | 115° |